Flight Track Log - Related Links

Times and Time Zones

All times are in EDT time to prevent confusion due to time zone crossing. See the SKW5542 flight status page for this flight to view local times or setup timezone preferences in your user account.

Time Position Orientation Groundspeed Altitude Reporting Facility
EDT Latitude Longitude Course Direction KTS MPH feet Rate Location/Type
Sat 06:06:04 AM 48.3500 -89.3167 155° Southeast 160 184 2,000  Level Winnipeg Center
Sat 06:07:04 AM 48.3000 -89.3500 204° Southwest 200 230 3,700 2,150 Climbing Winnipeg Center
Sat 06:08:04 AM 48.2500 -89.3000 146° Southeast 260 299 6,300 2,500 Climbing Winnipeg Center
Sat 06:09:00 AM 47.9591 -89.0227 156° South  Level FlightAware Approximate
Sat 06:09:04 AM 48.1833 -89.2333 146° Southeast 270 311 8,700  Level Winnipeg Center
Sat 06:10:00 AM 47.8558 -88.9539 156° South  Level FlightAware Approximate
Sat 06:10:04 AM 48.1000 -89.1833 158° South 300 345 10,900  Level Winnipeg Center
Sat 06:11:00 AM 47.7653 -88.9018 155° Southeast  Level FlightAware Approximate
Sat 06:11:04 AM 48.0167 -89.1167 152° Southeast 350 403 12,400  Level Winnipeg Center
Sat 06:12:04 AM 47.9167 -89.0500 156° South 370 426 14,200 1,900 Climbing Winnipeg Center
Sat 06:13:04 AM 47.8500 -88.9833 146° Southeast 360 414 16,200 1,600 Climbing Winnipeg Center
Sat 06:14:04 AM 47.7500 -88.9000 151° Southeast 380 437 17,400 1,200 Climbing Winnipeg Center
Sat 06:15:04 AM 47.6500 -88.8167 151° Southeast 390 449 18,600 1,300 Climbing Winnipeg Center
Sat 06:16:04 AM 47.5500 -88.7667 161° South 400 460 20,000 1,355 Climbing Winnipeg Center
Sat 06:16:37 AM 47.5242 -88.7528 160° South 401 461 20,700 1,355 Climbing Minneapolis Center
Sat 06:17:37 AM 47.4228 -88.6739 152° Southeast 409 471 22,100 1,150 Climbing Minneapolis Center
Sat 06:18:37 AM 47.3206 -88.5975 153° Southeast 411 473 23,000 1,000 Climbing Minneapolis Center
Sat 06:19:37 AM 47.2136 -88.5161 153° Southeast 424 488 24,100 992 Climbing Minneapolis Center
Sat 06:20:38 AM 47.1000 -88.4642 163° South 428 493 25,000 446 Climbing Minneapolis Center
Sat 06:21:38 AM 46.9803 -88.4319 170° South 434 499 25,000  Level Minneapolis Center
Sat 06:22:38 AM 46.8542 -88.3961 169° South 452 520 25,000  Level Minneapolis Center
Sat 06:23:38 AM 46.7244 -88.3597 169° South 464 534 25,000  Level Minneapolis Center
Sat 06:24:39 AM 46.5922 -88.3217 169° South 477 549 25,000  Level Minneapolis Center
Sat 06:25:39 AM 46.4594 -88.2864 170° South 482 555 25,000  Level Minneapolis Center
Sat 06:26:39 AM 46.3269 -88.2492 169° South 482 555 25,000  Level Minneapolis Center
Sat 06:27:40 AM 46.1933 -88.2131 169° South 485 558 25,000  Level Minneapolis Center
Sat 06:28:40 AM 46.0592 -88.1764 169° South 488 562 25,000  Level Minneapolis Center
Sat 06:29:40 AM 45.9308 -88.1431 170° South 487 560 25,000  Level Minneapolis Center
Sat 06:30:40 AM 45.7972 -88.1125 171° South 488 562 25,000  Level Minneapolis Center
Sat 06:31:41 AM 45.6633 -88.1142 180° South 484 557 25,000  Level Minneapolis Center
Sat 06:32:41 AM 45.5294 -88.1139 180° South 483 556 25,000  Level Minneapolis Center
Sat 06:33:41 AM 45.3961 -88.1147 180° South 482 555 25,000  Level Minneapolis Center
Sat 06:34:41 AM 45.2617 -88.1153 180° South 484 557 25,000  Level Minneapolis Center
Sat 06:35:42 AM 45.1275 -88.1167 180° South 485 558 25,000  Level Minneapolis Center
Sat 06:36:42 AM 44.9936 -88.1169 180° South 483 556 25,000  Level Minneapolis Center
Sat 06:37:42 AM 44.8586 -88.1169 180° South 486 559 25,000  Level Minneapolis Center
Sat 06:38:42 AM 44.6978 -88.1186 180° South 484 557 25,000 -397 Level Minneapolis Center
Sat 06:39:43 AM 44.5625 -88.1181 180° South 486 559 24,200 -942 Descending Minneapolis Center
Sat 06:40:43 AM 44.4275 -88.1192 180° South 484 557 23,100 -600 Descending Minneapolis Center
Sat 06:41:43 AM 44.2944 -88.1194 180° South 479 551 23,000 -50 Descending Minneapolis Center
Sat 06:42:44 AM 44.1608 -88.1211 181° South 479 551 23,000  Level Minneapolis Center
Sat 06:43:44 AM 44.0281 -88.1219 180° South 477 549 23,000  Level Minneapolis Center
Sat 06:44:44 AM 43.8944 -88.1225 180° South 478 550 23,000 -1,400 Level Minneapolis Center
Sat 06:45:44 AM 43.7631 -88.1236 180° South 473 544 20,200 -2,628 Descending Minneapolis Center
Sat 06:46:45 AM 43.6378 -88.1244 180° South 452 520 17,700 -2,588 Descending Minneapolis Center
Sat 06:47:26 AM 43.5606 -88.1247 180° South 427 491 15,800 -2,198 Descending Chicago Center
Sat 06:48:26 AM 43.4481 -88.1264 181° South 405 466 14,000 -1,500 Descending Chicago Center
Sat 06:49:26 AM 43.3567 -88.1392 186° South 393 452 12,800 -1,289 Descending Chicago Center
Sat 06:50:27 AM 43.2478 -88.1514 185° South 388 447 11,400 -1,339 Descending Chicago Center
Sat 06:51:27 AM 43.1439 -88.1647 185° South 377 434 10,100 -694 Descending Chicago Center
Sat 06:52:28 AM 43.0403 -88.1794 186° South 372 428 10,000 -50 Descending Chicago Center
Sat 06:53:28 AM 42.9367 -88.1944 186° South 373 429 10,000 -300 Level Chicago Center
Sat 06:54:28 AM 42.8519 -88.1853 175° South 303 349 9,400 -992 Descending Chicago Center
Sat 06:55:29 AM 42.7742 -88.1789 177° South 280 322 8,000 -694 Descending Chicago Center
Sat 06:56:29 AM 42.6983 -88.1725 176° South 273 314 8,000  Level Chicago Center
Sat 06:57:29 AM 42.6222 -88.1661 176° South 273 314 8,000  Level Chicago Center
Sat 06:58:30 AM 42.5461 -88.1583 176° South 274 315 8,000  Level Chicago Center
Sat 06:59:30 AM 42.4569 -88.1497 176° South 274 315 8,000  Level Chicago Center
Sat 07:00:31 AM 42.3808 -88.1422 176° South 274 315 8,000 -99 Level Chicago Center
Sat 07:01:31 AM 42.3086 -88.1336 175° South 278 320 7,800 -893 Descending Chicago Center
Sat 07:02:32 AM 42.2358 -88.1278 177° South 264 304 6,200 -1,388 Descending Chicago Center
Sat 07:03:32 AM 42.1775 -88.1181 173° South 219 252 5,000 -900 Descending Chicago Center
Sat 07:04:32 AM 42.1311 -88.0914 157° South 186 214 4,400 -818 Descending Chicago Center
Sat 07:05:00 AM 42.1000 -88.0667 149° Southeast 180 207 3,800 -1,084 Descending Chicago TRACON
Sat 07:05:55 AM 42.0667 -88.0333 143° Southeast 184 212 2,900 -982 Descending Chicago TRACON

Login

Don't have an account? Register now (free) for customized features, flight alerts, and more!